SKU011 SCFA-SEGS
Flight info
| Callsign | SKU011 |
|---|---|
| Flight time | 4h 31m |
| Altitude | 36000 |
| Route | BRADA4J BRADA UL300 IRULI UL550 JCL UL308 ISREN UL312 VAPOG UT17 LOLEX |
| Aircraft | A320/M-SDE3FGHIRWY/LB1 |
Departure
| Time | 2026-04-26 14:17 |
|---|---|
| Airport | Andrés Sabella Gálvez International Airport (SCFA) |
Arrival
| Time | 2026-04-26 18:49 |
|---|---|
| Airport | Seymour Galapagos Ecological Airport (SEGS) |
| Time | Latitude | Longitude | Altitude | Speed | Heading |
|---|---|---|---|---|---|
| 2026-04-26 14:01 | -23.44869 | -70.44184 | 462 ft | 0 kts | 96° |
| 2026-04-26 14:08 | -23.44868 | -70.44189 | 461 ft | 2 kts | 96° |
| 2026-04-26 14:08 | -23.44866 | -70.44207 | 458 ft | 2 kts | 98° |
| 2026-04-26 14:09 | -23.44864 | -70.44224 | 458 ft | 2 kts | 102° |
| 2026-04-26 14:09 | -23.44860 | -70.44242 | 460 ft | 2 kts | 115° |
| 2026-04-26 14:09 | -23.44850 | -70.44257 | 460 ft | 2 kts | 164° |
| 2026-04-26 14:09 | -23.44838 | -70.44259 | 461 ft | 1 kts | 184° |
| 2026-04-26 14:10 | -23.44836 | -70.44259 | 460 ft | 0 kts | 184° |
| 2026-04-26 14:12 | -23.44896 | -70.44267 | 462 ft | 19 kts | 185° |
| 2026-04-26 14:12 | -23.44980 | -70.44296 | 462 ft | 11 kts | 249° |
| 2026-04-26 14:12 | -23.44990 | -70.44374 | 462 ft | 10 kts | 232° |
| 2026-04-26 14:13 | -23.45096 | -70.44401 | 462 ft | 6 kts | 187° |
| 2026-04-26 14:13 | -23.45132 | -70.44406 | 462 ft | 4 kts | 187° |
| 2026-04-26 14:13 | -23.45190 | -70.44414 | 462 ft | 23 kts | 187° |
| 2026-04-26 14:14 | -23.45395 | -70.44438 | 462 ft | 26 kts | 185° |
| 2026-04-26 14:14 | -23.45494 | -70.44476 | 461 ft | 10 kts | 251° |
| 2026-04-26 14:14 | -23.45479 | -70.44568 | 463 ft | 16 kts | 266° |
| 2026-04-26 14:14 | -23.45457 | -70.44634 | 464 ft | 9 kts | 342° |
| 2026-04-26 14:15 | -23.45434 | -70.44633 | 464 ft | 0 kts | 359° |
| 2026-04-26 14:16 | -23.45433 | -70.44633 | 464 ft | 2 kts | 359° |
| 2026-04-26 14:16 | -23.45198 | -70.44609 | 464 ft | 69 kts | 6° |
| 2026-04-26 14:16 | -23.44501 | -70.44523 | 461 ft | 129 kts | 6° |
| 2026-04-26 14:17 | -23.43444 | -70.44414 | 487 ft | 173 kts | 3° |
| 2026-04-26 14:17 | -23.42260 | -70.44286 | 1250 ft | 166 kts | 6° |
| 2026-04-26 14:17 | -23.41191 | -70.43843 | 1848 ft | 170 kts | 48° |
| 2026-04-26 14:17 | -23.40788 | -70.42654 | 2391 ft | 177 kts | 97° |
| 2026-04-26 14:18 | -23.41395 | -70.41455 | 2635 ft | 196 kts | 145° |
| 2026-04-26 14:18 | -23.42754 | -70.41073 | 2820 ft | 217 kts | 189° |
| 2026-04-26 14:18 | -23.43728 | -70.41449 | 2958 ft | 233 kts | 208° |
| 2026-04-26 14:18 | -23.45223 | -70.42337 | 3247 ft | 257 kts | 208° |
| 2026-04-26 14:19 | -23.46834 | -70.43299 | 3792 ft | 269 kts | 208° |
| 2026-04-26 14:19 | -23.48491 | -70.44289 | 4501 ft | 275 kts | 208° |
| 2026-04-26 14:19 | -23.50245 | -70.45162 | 5190 ft | 279 kts | 199° |
| 2026-04-26 14:19 | -23.52015 | -70.46059 | 5870 ft | 284 kts | 216° |
| 2026-04-26 14:20 | -23.53364 | -70.47619 | 6533 ft | 286 kts | 241° |
| 2026-04-26 14:20 | -23.53985 | -70.49668 | 7172 ft | 288 kts | 266° |
| 2026-04-26 14:20 | -23.53744 | -70.51816 | 7818 ft | 288 kts | 291° |
| 2026-04-26 14:20 | -23.52697 | -70.53664 | 8455 ft | 289 kts | 316° |
| 2026-04-26 14:21 | -23.51034 | -70.54888 | 9080 ft | 292 kts | 337° |
| 2026-04-26 14:21 | -23.49148 | -70.55744 | 9701 ft | 296 kts | 338° |
| 2026-04-26 14:21 | -23.47229 | -70.56604 | 10222 ft | 304 kts | 338° |
| 2026-04-26 14:21 | -23.45139 | -70.57307 | 10341 ft | 325 kts | 348° |
| 2026-04-26 14:22 | -23.42828 | -70.57650 | 10460 ft | 345 kts | 354° |
| 2026-04-26 14:22 | -23.40371 | -70.57917 | 10593 ft | 363 kts | 354° |
| 2026-04-26 14:22 | -23.37826 | -70.58196 | 10983 ft | 371 kts | 354° |
| 2026-04-26 14:22 | -23.35247 | -70.58478 | 11501 ft | 374 kts | 354° |
| 2026-04-26 14:23 | -23.32647 | -70.58762 | 12035 ft | 377 kts | 354° |
| 2026-04-26 14:23 | -23.30027 | -70.59051 | 12588 ft | 380 kts | 354° |
| 2026-04-26 14:23 | -23.27387 | -70.59345 | 13132 ft | 383 kts | 354° |
| 2026-04-26 14:23 | -23.24726 | -70.59641 | 13674 ft | 386 kts | 353° |
| 2026-04-26 14:24 | -23.22044 | -70.59940 | 14154 ft | 389 kts | 353° |
| 2026-04-26 14:24 | -23.19331 | -70.60244 | 14588 ft | 393 kts | 353° |
| 2026-04-26 14:24 | -23.16600 | -70.60551 | 15004 ft | 397 kts | 353° |
| 2026-04-26 14:24 | -23.13837 | -70.60859 | 15400 ft | 401 kts | 353° |
| 2026-04-26 14:25 | -23.11046 | -70.61170 | 15811 ft | 405 kts | 353° |
| 2026-04-26 14:25 | -23.08225 | -70.61484 | 16203 ft | 409 kts | 353° |
| 2026-04-26 14:25 | -23.05377 | -70.61799 | 16600 ft | 413 kts | 353° |
| 2026-04-26 14:25 | -23.02501 | -70.62114 | 16994 ft | 417 kts | 352° |
| 2026-04-26 14:26 | -22.99600 | -70.62435 | 17376 ft | 421 kts | 352° |
| 2026-04-26 14:26 | -22.96674 | -70.62758 | 17754 ft | 425 kts | 352° |
| 2026-04-26 14:26 | -22.93722 | -70.63083 | 18119 ft | 428 kts | 352° |
| 2026-04-26 14:26 | -22.90744 | -70.63410 | 18467 ft | 432 kts | 352° |
| 2026-04-26 14:27 | -22.87746 | -70.63739 | 18834 ft | 434 kts | 352° |
| 2026-04-26 14:27 | -22.84746 | -70.64068 | 19221 ft | 435 kts | 352° |
| 2026-04-26 14:27 | -22.81734 | -70.64399 | 19611 ft | 435 kts | 352° |
| 2026-04-26 14:27 | -22.78716 | -70.64731 | 20000 ft | 436 kts | 352° |
| 2026-04-26 14:28 | -22.75694 | -70.65062 | 20384 ft | 437 kts | 352° |
| 2026-04-26 14:28 | -22.72665 | -70.65394 | 20775 ft | 438 kts | 352° |
| 2026-04-26 14:28 | -22.69625 | -70.65729 | 21164 ft | 439 kts | 351° |
| 2026-04-26 14:28 | -22.66587 | -70.66068 | 21532 ft | 439 kts | 351° |
| 2026-04-26 14:29 | -22.63583 | -70.66402 | 21900 ft | 440 kts | 351° |
| 2026-04-26 14:29 | -22.60533 | -70.66738 | 22273 ft | 441 kts | 351° |
| 2026-04-26 14:29 | -22.57436 | -70.67078 | 22641 ft | 442 kts | 351° |
| 2026-04-26 14:29 | -22.54380 | -70.67413 | 22987 ft | 443 kts | 351° |
| 2026-04-26 14:30 | -22.51308 | -70.67749 | 23320 ft | 444 kts | 351° |
| 2026-04-26 14:30 | -22.48270 | -70.68080 | 23647 ft | 445 kts | 351° |
| 2026-04-26 14:30 | -22.45184 | -70.68417 | 23913 ft | 446 kts | 351° |
| 2026-04-26 14:30 | -22.42089 | -70.68755 | 24164 ft | 448 kts | 351° |
| 2026-04-26 14:31 | -22.38986 | -70.69095 | 24420 ft | 449 kts | 351° |
| 2026-04-26 14:31 | -22.35873 | -70.69438 | 24670 ft | 450 kts | 351° |
| 2026-04-26 14:31 | -22.32753 | -70.69783 | 24917 ft | 451 kts | 351° |
| 2026-04-26 14:31 | -22.29623 | -70.70126 | 25180 ft | 453 kts | 351° |
| 2026-04-26 14:32 | -22.26484 | -70.70469 | 25428 ft | 454 kts | 351° |
| 2026-04-26 14:32 | -22.23336 | -70.70812 | 25673 ft | 455 kts | 351° |
| 2026-04-26 14:32 | -22.20179 | -70.71155 | 25923 ft | 457 kts | 351° |
| 2026-04-26 14:32 | -22.17013 | -70.71499 | 26169 ft | 458 kts | 351° |
| 2026-04-26 14:33 | -22.13837 | -70.71847 | 26401 ft | 459 kts | 351° |
| 2026-04-26 14:33 | -22.10652 | -70.72198 | 26629 ft | 461 kts | 351° |
| 2026-04-26 14:33 | -22.07456 | -70.72547 | 26851 ft | 462 kts | 351° |
| 2026-04-26 14:33 | -22.04251 | -70.72896 | 27069 ft | 464 kts | 351° |
| 2026-04-26 14:34 | -22.01037 | -70.73245 | 27297 ft | 465 kts | 351° |
| 2026-04-26 14:34 | -21.97821 | -70.73591 | 27509 ft | 466 kts | 351° |
| 2026-04-26 14:34 | -21.94587 | -70.73940 | 27719 ft | 468 kts | 351° |
| 2026-04-26 14:34 | -21.91344 | -70.74290 | 27928 ft | 469 kts | 351° |
| 2026-04-26 14:35 | -21.88072 | -70.74534 | 28132 ft | 473 kts | 356° |
| 2026-04-26 14:35 | -21.84784 | -70.74548 | 28330 ft | 474 kts | 356° |
| 2026-04-26 14:35 | -21.81479 | -70.74560 | 28537 ft | 476 kts | 356° |
| 2026-04-26 14:35 | -21.78172 | -70.74576 | 28828 ft | 475 kts | 356° |
| 2026-04-26 14:36 | -21.74866 | -70.74595 | 29139 ft | 474 kts | 356° |
| 2026-04-26 14:36 | -21.71574 | -70.74616 | 29437 ft | 473 kts | 356° |
| 2026-04-26 14:36 | -21.68295 | -70.74635 | 29740 ft | 472 kts | 356° |
| 2026-04-26 14:36 | -21.65014 | -70.74651 | 30043 ft | 471 kts | 356° |
| 2026-04-26 14:37 | -21.61737 | -70.74665 | 30306 ft | 470 kts | 356° |
| 2026-04-26 14:37 | -21.58459 | -70.74678 | 30568 ft | 470 kts | 356° |
| 2026-04-26 14:37 | -21.55203 | -70.74693 | 30834 ft | 468 kts | 356° |
| 2026-04-26 14:37 | -21.51949 | -70.74711 | 31115 ft | 467 kts | 356° |
| 2026-04-26 14:38 | -21.48704 | -70.74726 | 31394 ft | 466 kts | 356° |
| 2026-04-26 14:38 | -21.45469 | -70.74740 | 31670 ft | 464 kts | 356° |
| 2026-04-26 14:38 | -21.42243 | -70.74753 | 31960 ft | 463 kts | 356° |
| 2026-04-26 14:38 | -21.40110 | -70.74764 | 32143 ft | 462 kts | 356° |
| 2026-04-26 14:39 | -21.35822 | -70.74787 | 32518 ft | 460 kts | 356° |
| 2026-04-26 14:39 | -21.32625 | -70.74802 | 32813 ft | 459 kts | 356° |
| 2026-04-26 14:39 | -21.29438 | -70.74815 | 33097 ft | 457 kts | 356° |
| 2026-04-26 14:39 | -21.26260 | -70.74828 | 33376 ft | 456 kts | 356° |
| 2026-04-26 14:40 | -21.23085 | -70.74844 | 33664 ft | 455 kts | 356° |
| 2026-04-26 14:40 | -21.19926 | -70.74861 | 33943 ft | 453 kts | 356° |
| 2026-04-26 14:40 | -21.16776 | -70.74877 | 34203 ft | 452 kts | 356° |
| 2026-04-26 14:40 | -21.13640 | -70.74892 | 34425 ft | 451 kts | 356° |
| 2026-04-26 14:41 | -21.10493 | -70.74907 | 34639 ft | 451 kts | 356° |
| 2026-04-26 14:41 | -21.07362 | -70.74922 | 34835 ft | 451 kts | 356° |
| 2026-04-26 14:41 | -21.04218 | -70.74938 | 35021 ft | 451 kts | 356° |
| 2026-04-26 14:42 | -20.97942 | -70.74972 | 35085 ft | 451 kts | 356° |
| 2026-04-26 14:42 | -20.91667 | -70.75002 | 35084 ft | 450 kts | 356° |
| 2026-04-26 14:43 | -20.85401 | -70.75038 | 35083 ft | 450 kts | 356° |
| 2026-04-26 14:43 | -20.79143 | -70.75069 | 35084 ft | 450 kts | 356° |
| 2026-04-26 14:44 | -20.72919 | -70.75098 | 35085 ft | 450 kts | 356° |
| 2026-04-26 14:44 | -20.66659 | -70.75125 | 35079 ft | 449 kts | 356° |
| 2026-04-26 14:45 | -20.60408 | -70.75153 | 35079 ft | 449 kts | 356° |
| 2026-04-26 14:45 | -20.54153 | -70.75182 | 35080 ft | 450 kts | 357° |
| 2026-04-26 14:46 | -20.47898 | -70.75212 | 35086 ft | 449 kts | 357° |
| 2026-04-26 14:46 | -20.41650 | -70.75333 | 35081 ft | 447 kts | 351° |
| 2026-04-26 14:46 | -20.38617 | -70.75962 | 35085 ft | 443 kts | 340° |
| 2026-04-26 14:47 | -20.35755 | -70.77152 | 35087 ft | 440 kts | 330° |
| 2026-04-26 14:47 | -20.30769 | -70.80864 | 35082 ft | 438 kts | 320° |
| 2026-04-26 14:48 | -20.26035 | -70.84949 | 35080 ft | 438 kts | 320° |
| 2026-04-26 14:48 | -20.21286 | -70.89037 | 35087 ft | 439 kts | 320° |
| 2026-04-26 14:49 | -20.16533 | -70.93125 | 35082 ft | 439 kts | 320° |
| 2026-04-26 14:49 | -20.11782 | -70.97219 | 35087 ft | 440 kts | 320° |
| 2026-04-26 14:50 | -20.07025 | -71.01318 | 35085 ft | 440 kts | 320° |
| 2026-04-26 14:50 | -20.02269 | -71.05410 | 35079 ft | 440 kts | 320° |
| 2026-04-26 14:51 | -19.97507 | -71.09505 | 35080 ft | 440 kts | 320° |
| 2026-04-26 14:51 | -19.92741 | -71.13595 | 35083 ft | 441 kts | 320° |
| 2026-04-26 14:52 | -19.87970 | -71.17685 | 35081 ft | 441 kts | 320° |
| 2026-04-26 14:52 | -19.83191 | -71.21779 | 35082 ft | 442 kts | 320° |
| 2026-04-26 14:53 | -19.78428 | -71.25849 | 35082 ft | 442 kts | 320° |
| 2026-04-26 14:53 | -19.73636 | -71.29948 | 35079 ft | 443 kts | 320° |
| 2026-04-26 14:54 | -19.68846 | -71.34056 | 35081 ft | 443 kts | 320° |
| 2026-04-26 14:54 | -19.64049 | -71.38159 | 35081 ft | 443 kts | 320° |
| 2026-04-26 14:55 | -19.59240 | -71.42258 | 35082 ft | 444 kts | 320° |
| 2026-04-26 14:55 | -19.54430 | -71.46362 | 35083 ft | 444 kts | 320° |
| 2026-04-26 14:56 | -19.49616 | -71.50463 | 35086 ft | 444 kts | 320° |
| 2026-04-26 14:56 | -19.44796 | -71.54559 | 35079 ft | 444 kts | 320° |
| 2026-04-26 14:57 | -19.39973 | -71.58662 | 35082 ft | 444 kts | 320° |
| 2026-04-26 14:57 | -19.35157 | -71.62765 | 35081 ft | 444 kts | 320° |
| 2026-04-26 14:58 | -19.30337 | -71.66865 | 35080 ft | 445 kts | 320° |
| 2026-04-26 14:58 | -19.25510 | -71.70960 | 35085 ft | 445 kts | 320° |
| 2026-04-26 14:59 | -19.20671 | -71.75056 | 35083 ft | 445 kts | 320° |
| 2026-04-26 14:59 | -19.15840 | -71.79153 | 35081 ft | 445 kts | 320° |
| 2026-04-26 15:00 | -19.11831 | -71.82559 | 35080 ft | 445 kts | 320° |
| 2026-04-26 15:00 | -19.06176 | -71.87348 | 35084 ft | 445 kts | 320° |
| 2026-04-26 15:01 | -19.02157 | -71.90744 | 35081 ft | 445 kts | 320° |
| 2026-04-26 15:01 | -18.97307 | -71.94832 | 35082 ft | 445 kts | 320° |
| 2026-04-26 15:02 | -18.92458 | -71.98919 | 35082 ft | 445 kts | 320° |
| 2026-04-26 15:02 | -18.87620 | -72.03011 | 35081 ft | 446 kts | 320° |
| 2026-04-26 15:03 | -18.82777 | -72.07103 | 35081 ft | 446 kts | 320° |
| 2026-04-26 15:03 | -18.77925 | -72.11187 | 35082 ft | 446 kts | 321° |
| 2026-04-26 15:04 | -18.73102 | -72.15241 | 35081 ft | 446 kts | 321° |
| 2026-04-26 15:04 | -18.68251 | -72.19327 | 35077 ft | 446 kts | 320° |
| 2026-04-26 15:05 | -18.63406 | -72.23406 | 35076 ft | 446 kts | 321° |
| 2026-04-26 15:05 | -18.58545 | -72.27492 | 35080 ft | 446 kts | 321° |
| 2026-04-26 15:06 | -18.53682 | -72.31561 | 35079 ft | 446 kts | 321° |
| 2026-04-26 15:06 | -18.48830 | -72.35636 | 35080 ft | 446 kts | 321° |
| 2026-04-26 15:07 | -18.41545 | -72.41742 | 35079 ft | 446 kts | 321° |
| 2026-04-26 15:07 | -18.36679 | -72.45810 | 35081 ft | 446 kts | 321° |
| 2026-04-26 15:08 | -18.31824 | -72.49879 | 35077 ft | 446 kts | 321° |
| 2026-04-26 15:08 | -18.26972 | -72.53944 | 35076 ft | 446 kts | 321° |
| 2026-04-26 15:09 | -18.22103 | -72.58015 | 35076 ft | 447 kts | 321° |
| 2026-04-26 15:09 | -18.17228 | -72.62086 | 35203 ft | 447 kts | 321° |
| 2026-04-26 15:10 | -18.14795 | -72.64117 | 35427 ft | 446 kts | 321° |
| 2026-04-26 15:10 | -18.13187 | -72.65458 | 35577 ft | 445 kts | 321° |
| 2026-04-26 15:10 | -18.09946 | -72.68159 | 35861 ft | 444 kts | 321° |
| 2026-04-26 15:10 | -18.07527 | -72.70177 | 36019 ft | 444 kts | 321° |
| 2026-04-26 15:11 | -18.02689 | -72.74207 | 36074 ft | 443 kts | 321° |
| 2026-04-26 15:11 | -17.97854 | -72.78234 | 36074 ft | 444 kts | 321° |
| 2026-04-26 15:12 | -17.93017 | -72.82260 | 36073 ft | 444 kts | 321° |
| 2026-04-26 15:12 | -17.88169 | -72.86289 | 36073 ft | 444 kts | 321° |
| 2026-04-26 15:13 | -17.83328 | -72.90322 | 36073 ft | 445 kts | 321° |
| 2026-04-26 15:13 | -17.78477 | -72.94354 | 36072 ft | 445 kts | 321° |
| 2026-04-26 15:14 | -17.73622 | -72.98382 | 36074 ft | 445 kts | 321° |
| 2026-04-26 15:14 | -17.68767 | -73.02411 | 36068 ft | 445 kts | 321° |
| 2026-04-26 15:15 | -17.63905 | -73.06439 | 36071 ft | 445 kts | 321° |
| 2026-04-26 15:15 | -17.59071 | -73.10442 | 36070 ft | 445 kts | 321° |
| 2026-04-26 15:16 | -17.54215 | -73.14470 | 36072 ft | 445 kts | 321° |
| 2026-04-26 15:16 | -17.49348 | -73.18492 | 36070 ft | 446 kts | 321° |
| 2026-04-26 15:17 | -17.45269 | -73.21861 | 36071 ft | 446 kts | 321° |
| 2026-04-26 15:17 | -17.39608 | -73.26538 | 36067 ft | 446 kts | 322° |
| 2026-04-26 15:18 | -17.34729 | -73.30559 | 36068 ft | 446 kts | 322° |
| 2026-04-26 15:18 | -17.29854 | -73.34580 | 36068 ft | 446 kts | 321° |
| 2026-04-26 15:19 | -17.24983 | -73.38609 | 36066 ft | 446 kts | 322° |
| 2026-04-26 15:19 | -17.20107 | -73.42628 | 36065 ft | 446 kts | 322° |
| 2026-04-26 15:20 | -17.15224 | -73.46645 | 36064 ft | 447 kts | 322° |
| 2026-04-26 15:20 | -17.10338 | -73.50662 | 36067 ft | 447 kts | 322° |
| 2026-04-26 15:21 | -17.05453 | -73.54676 | 36071 ft | 447 kts | 322° |
| 2026-04-26 15:21 | -17.00567 | -73.58697 | 36063 ft | 447 kts | 322° |
| 2026-04-26 15:22 | -16.95670 | -73.62711 | 36067 ft | 447 kts | 322° |
| 2026-04-26 15:22 | -16.90777 | -73.66722 | 36063 ft | 447 kts | 322° |
| 2026-04-26 15:23 | -16.85883 | -73.70737 | 36064 ft | 447 kts | 322° |
| 2026-04-26 15:23 | -16.80989 | -73.74750 | 36064 ft | 448 kts | 322° |
| 2026-04-26 15:24 | -16.76085 | -73.78759 | 36069 ft | 448 kts | 322° |
| 2026-04-26 15:24 | -16.71188 | -73.82774 | 36069 ft | 448 kts | 322° |
| 2026-04-26 15:25 | -16.67082 | -73.86127 | 36068 ft | 447 kts | 322° |
| 2026-04-26 15:25 | -16.61389 | -73.90778 | 36067 ft | 447 kts | 322° |
| 2026-04-26 15:26 | -16.56489 | -73.94777 | 36066 ft | 447 kts | 322° |
| 2026-04-26 15:26 | -16.51596 | -73.98771 | 36064 ft | 447 kts | 322° |
| 2026-04-26 15:27 | -16.46694 | -74.02769 | 36064 ft | 447 kts | 322° |
| 2026-04-26 15:27 | -16.41793 | -74.06762 | 36066 ft | 447 kts | 322° |
| 2026-04-26 15:28 | -16.36885 | -74.10743 | 36061 ft | 447 kts | 322° |
| 2026-04-26 15:28 | -16.31983 | -74.14726 | 36059 ft | 447 kts | 322° |
| 2026-04-26 15:29 | -16.27084 | -74.18716 | 36057 ft | 447 kts | 322° |
| 2026-04-26 15:30 | -16.17281 | -74.26679 | 36056 ft | 447 kts | 322° |
| 2026-04-26 15:30 | -16.12375 | -74.30655 | 36054 ft | 447 kts | 322° |
| 2026-04-26 15:31 | -16.05024 | -74.36630 | 36057 ft | 447 kts | 322° |
| 2026-04-26 15:32 | -15.99288 | -74.41283 | 36060 ft | 447 kts | 322° |
| 2026-04-26 15:32 | -15.92742 | -74.46560 | 36065 ft | 447 kts | 322° |
| 2026-04-26 15:33 | -15.87831 | -74.50530 | 36069 ft | 447 kts | 322° |
| 2026-04-26 15:33 | -15.82925 | -74.54500 | 36075 ft | 447 kts | 322° |
| 2026-04-26 15:34 | -15.78023 | -74.58469 | 36079 ft | 447 kts | 322° |
| 2026-04-26 15:34 | -15.73112 | -74.62438 | 36084 ft | 447 kts | 322° |
| 2026-04-26 15:35 | -15.68198 | -74.66402 | 36091 ft | 447 kts | 323° |
| 2026-04-26 15:35 | -15.63274 | -74.70364 | 36096 ft | 448 kts | 323° |
| 2026-04-26 15:36 | -15.58356 | -74.74325 | 36102 ft | 448 kts | 323° |
| 2026-04-26 15:36 | -15.53462 | -74.78262 | 36106 ft | 448 kts | 322° |
| 2026-04-26 15:37 | -15.48538 | -74.82229 | 36111 ft | 448 kts | 323° |
| 2026-04-26 15:37 | -15.43614 | -74.86176 | 36115 ft | 447 kts | 323° |
| 2026-04-26 15:38 | -15.38692 | -74.90130 | 36112 ft | 447 kts | 323° |
| 2026-04-26 15:38 | -15.33778 | -74.94080 | 36110 ft | 447 kts | 323° |
| 2026-04-26 15:39 | -15.28865 | -74.98029 | 36104 ft | 447 kts | 323° |
| 2026-04-26 15:39 | -15.25575 | -75.00666 | 36104 ft | 447 kts | 323° |
| 2026-04-26 15:40 | -15.19034 | -75.05922 | 36107 ft | 447 kts | 323° |
| 2026-04-26 15:40 | -15.14119 | -75.09863 | 36102 ft | 447 kts | 323° |
| 2026-04-26 15:41 | -15.09194 | -75.13798 | 36104 ft | 447 kts | 323° |
| 2026-04-26 15:41 | -15.04267 | -75.17730 | 36106 ft | 447 kts | 323° |
| 2026-04-26 15:42 | -15.00175 | -75.21005 | 36104 ft | 447 kts | 323° |
| 2026-04-26 15:42 | -14.95252 | -75.24944 | 36104 ft | 447 kts | 323° |
| 2026-04-26 15:43 | -14.90328 | -75.28880 | 36102 ft | 447 kts | 323° |
| 2026-04-26 15:44 | -14.82937 | -75.34790 | 36102 ft | 447 kts | 323° |
| 2026-04-26 15:44 | -14.75549 | -75.40686 | 36106 ft | 447 kts | 323° |
| 2026-04-26 15:45 | -14.68155 | -75.46563 | 36108 ft | 447 kts | 323° |
| 2026-04-26 15:46 | -14.60761 | -75.52451 | 36108 ft | 447 kts | 323° |
| 2026-04-26 15:46 | -14.56670 | -75.55713 | 36108 ft | 447 kts | 323° |
| 2026-04-26 15:47 | -14.48442 | -75.62249 | 36104 ft | 447 kts | 323° |
| 2026-04-26 15:48 | -14.43517 | -75.66167 | 36099 ft | 447 kts | 323° |
| 2026-04-26 15:48 | -14.38588 | -75.70084 | 36097 ft | 447 kts | 323° |
| 2026-04-26 15:49 | -14.33652 | -75.73994 | 36090 ft | 447 kts | 323° |
| 2026-04-26 15:49 | -14.28721 | -75.77902 | 36081 ft | 447 kts | 323° |
| 2026-04-26 15:50 | -14.23800 | -75.81809 | 36079 ft | 447 kts | 323° |
| 2026-04-26 15:50 | -14.18871 | -75.85713 | 36070 ft | 447 kts | 323° |
| 2026-04-26 15:51 | -14.13943 | -75.89618 | 36067 ft | 447 kts | 323° |
| 2026-04-26 15:51 | -14.09046 | -75.93494 | 36059 ft | 447 kts | 323° |
| 2026-04-26 15:52 | -14.04112 | -75.97393 | 36053 ft | 447 kts | 323° |
| 2026-04-26 15:52 | -13.99176 | -76.01291 | 36052 ft | 447 kts | 323° |
| 2026-04-26 15:53 | -13.94239 | -76.05187 | 36052 ft | 447 kts | 323° |
| 2026-04-26 15:53 | -13.89301 | -76.09084 | 36052 ft | 447 kts | 323° |
| 2026-04-26 15:54 | -13.84362 | -76.12985 | 36058 ft | 448 kts | 323° |
| 2026-04-26 15:54 | -13.79415 | -76.16888 | 36066 ft | 448 kts | 323° |
| 2026-04-26 15:55 | -13.74420 | -76.20709 | 36062 ft | 447 kts | 329° |
| 2026-04-26 15:55 | -13.68758 | -76.23339 | 36067 ft | 446 kts | 339° |
| 2026-04-26 15:56 | -13.62974 | -76.25664 | 36062 ft | 446 kts | 339° |
| 2026-04-26 15:56 | -13.57198 | -76.27998 | 36055 ft | 446 kts | 339° |
| 2026-04-26 15:57 | -13.51409 | -76.30335 | 36048 ft | 447 kts | 339° |
| 2026-04-26 15:57 | -13.45623 | -76.32678 | 36045 ft | 447 kts | 339° |
| 2026-04-26 15:58 | -13.39841 | -76.35011 | 36040 ft | 447 kts | 339° |
| 2026-04-26 15:58 | -13.34056 | -76.37344 | 36040 ft | 447 kts | 339° |
| 2026-04-26 15:59 | -13.28270 | -76.39675 | 36041 ft | 447 kts | 339° |
| 2026-04-26 15:59 | -13.22479 | -76.42011 | 36041 ft | 447 kts | 339° |
| 2026-04-26 16:00 | -13.16687 | -76.44339 | 36044 ft | 447 kts | 339° |
| 2026-04-26 16:00 | -13.10895 | -76.46668 | 36047 ft | 447 kts | 339° |
| 2026-04-26 16:01 | -13.05099 | -76.48996 | 36047 ft | 447 kts | 339° |
| 2026-04-26 16:01 | -12.99308 | -76.51322 | 36042 ft | 447 kts | 339° |
| 2026-04-26 16:02 | -12.93511 | -76.53648 | 36047 ft | 447 kts | 339° |
| 2026-04-26 16:02 | -12.87715 | -76.55973 | 36052 ft | 448 kts | 339° |
| 2026-04-26 16:03 | -12.81914 | -76.58302 | 36048 ft | 448 kts | 339° |
| 2026-04-26 16:03 | -12.76157 | -76.60738 | 36056 ft | 448 kts | 332° |
| 2026-04-26 16:04 | -12.70929 | -76.64215 | 36052 ft | 448 kts | 326° |
| 2026-04-26 16:04 | -12.65767 | -76.67802 | 36050 ft | 448 kts | 327° |
| 2026-04-26 16:05 | -12.60603 | -76.71384 | 36046 ft | 449 kts | 327° |
| 2026-04-26 16:05 | -12.55462 | -76.74947 | 36050 ft | 449 kts | 327° |
| 2026-04-26 16:06 | -12.50285 | -76.78527 | 36048 ft | 449 kts | 327° |
| 2026-04-26 16:06 | -12.45107 | -76.82113 | 36051 ft | 449 kts | 327° |
| 2026-04-26 16:07 | -12.39923 | -76.85700 | 36050 ft | 450 kts | 327° |
| 2026-04-26 16:07 | -12.34743 | -76.89286 | 36054 ft | 450 kts | 327° |
| 2026-04-26 16:08 | -12.29560 | -76.92876 | 36054 ft | 450 kts | 327° |
| 2026-04-26 16:08 | -12.24376 | -76.96460 | 36051 ft | 450 kts | 327° |
| 2026-04-26 16:09 | -12.19194 | -77.00039 | 36044 ft | 449 kts | 327° |
| 2026-04-26 16:09 | -12.14014 | -77.03618 | 36039 ft | 449 kts | 327° |
| 2026-04-26 16:10 | -12.08831 | -77.07196 | 36038 ft | 449 kts | 327° |
| 2026-04-26 16:10 | -12.03609 | -77.10698 | 36033 ft | 448 kts | 332° |
| 2026-04-26 16:11 | -11.98013 | -77.13504 | 36030 ft | 448 kts | 335° |
| 2026-04-26 16:11 | -11.92398 | -77.16273 | 36030 ft | 448 kts | 335° |
| 2026-04-26 16:12 | -11.86783 | -77.19046 | 36033 ft | 448 kts | 335° |
| 2026-04-26 16:12 | -11.78356 | -77.23209 | 36041 ft | 449 kts | 335° |
| 2026-04-26 16:13 | -11.72743 | -77.25983 | 36045 ft | 449 kts | 335° |
| 2026-04-26 16:13 | -11.67122 | -77.28757 | 36046 ft | 449 kts | 335° |
| 2026-04-26 16:14 | -11.61498 | -77.31522 | 36049 ft | 449 kts | 335° |
| 2026-04-26 16:15 | -11.53064 | -77.35679 | 36050 ft | 449 kts | 335° |
| 2026-04-26 16:15 | -11.47441 | -77.38448 | 36056 ft | 449 kts | 335° |
| 2026-04-26 16:16 | -11.38997 | -77.42598 | 36059 ft | 449 kts | 335° |
| 2026-04-26 16:16 | -11.33372 | -77.45369 | 36060 ft | 449 kts | 335° |
| 2026-04-26 16:17 | -11.27739 | -77.48136 | 36061 ft | 449 kts | 335° |
| 2026-04-26 16:17 | -11.22114 | -77.50900 | 36057 ft | 449 kts | 335° |
| 2026-04-26 16:18 | -11.13669 | -77.55051 | 36063 ft | 449 kts | 335° |
| 2026-04-26 16:19 | -11.05224 | -77.59199 | 36062 ft | 449 kts | 335° |
| 2026-04-26 16:20 | -10.96785 | -77.63339 | 36061 ft | 449 kts | 335° |
| 2026-04-26 16:20 | -10.89283 | -77.67017 | 36063 ft | 450 kts | 335° |
| 2026-04-26 16:21 | -10.83644 | -77.69787 | 36073 ft | 450 kts | 335° |
| 2026-04-26 16:21 | -10.78002 | -77.72553 | 36078 ft | 450 kts | 335° |
| 2026-04-26 16:22 | -10.72363 | -77.75313 | 36086 ft | 450 kts | 336° |
| 2026-04-26 16:22 | -10.66719 | -77.78072 | 36094 ft | 450 kts | 336° |
| 2026-04-26 16:23 | -10.61074 | -77.80838 | 36103 ft | 450 kts | 336° |
| 2026-04-26 16:23 | -10.55427 | -77.83601 | 36112 ft | 451 kts | 336° |
| 2026-04-26 16:24 | -10.49778 | -77.86365 | 36119 ft | 450 kts | 336° |
| 2026-04-26 16:24 | -10.44131 | -77.89119 | 36124 ft | 450 kts | 336° |
| 2026-04-26 16:25 | -10.38479 | -77.91880 | 36131 ft | 450 kts | 336° |
| 2026-04-26 16:25 | -10.32835 | -77.94645 | 36127 ft | 450 kts | 335° |
| 2026-04-26 16:26 | -10.27183 | -77.97404 | 36135 ft | 451 kts | 336° |
| 2026-04-26 16:26 | -10.21604 | -78.00321 | 36135 ft | 452 kts | 327° |
| 2026-04-26 16:27 | -10.17015 | -78.04674 | 36129 ft | 455 kts | 309° |
| 2026-04-26 16:27 | -10.13242 | -78.09794 | 36118 ft | 456 kts | 309° |
| 2026-04-26 16:28 | -10.09427 | -78.14943 | 36114 ft | 457 kts | 309° |
| 2026-04-26 16:28 | -10.05614 | -78.20101 | 36111 ft | 457 kts | 308° |
| 2026-04-26 16:29 | -10.01801 | -78.25265 | 36110 ft | 457 kts | 309° |
| 2026-04-26 16:29 | -9.97974 | -78.30421 | 36108 ft | 457 kts | 309° |
| 2026-04-26 16:30 | -9.94146 | -78.35575 | 36107 ft | 457 kts | 309° |
| 2026-04-26 16:30 | -9.90320 | -78.40728 | 36105 ft | 457 kts | 308° |
| 2026-04-26 16:31 | -9.86501 | -78.45880 | 36100 ft | 457 kts | 308° |
| 2026-04-26 16:31 | -9.82683 | -78.51037 | 36095 ft | 457 kts | 308° |
| 2026-04-26 16:32 | -9.79509 | -78.55315 | 36097 ft | 456 kts | 308° |
| 2026-04-26 16:32 | -9.75045 | -78.61328 | 36089 ft | 456 kts | 308° |
| 2026-04-26 16:33 | -9.71205 | -78.66451 | 36085 ft | 456 kts | 311° |
| 2026-04-26 16:33 | -9.66562 | -78.70777 | 36080 ft | 453 kts | 322° |
| 2026-04-26 16:34 | -9.61654 | -78.74802 | 36069 ft | 454 kts | 322° |
| 2026-04-26 16:34 | -9.56752 | -78.78833 | 36061 ft | 454 kts | 322° |
| 2026-04-26 16:35 | -9.51880 | -78.82844 | 36055 ft | 454 kts | 322° |
| 2026-04-26 16:35 | -9.46947 | -78.86908 | 36047 ft | 454 kts | 322° |
| 2026-04-26 16:36 | -9.42079 | -78.90910 | 36040 ft | 454 kts | 322° |
| 2026-04-26 16:36 | -9.37176 | -78.94930 | 36030 ft | 454 kts | 322° |
| 2026-04-26 16:37 | -9.32272 | -78.98955 | 36020 ft | 454 kts | 322° |
| 2026-04-26 16:37 | -9.28165 | -79.02330 | 36018 ft | 454 kts | 322° |
| 2026-04-26 16:38 | -9.22464 | -79.07009 | 36015 ft | 454 kts | 322° |
| 2026-04-26 16:38 | -9.17559 | -79.11036 | 36014 ft | 454 kts | 322° |
| 2026-04-26 16:39 | -9.12646 | -79.15066 | 36004 ft | 454 kts | 322° |
| 2026-04-26 16:39 | -9.07720 | -79.19091 | 36001 ft | 455 kts | 322° |
| 2026-04-26 16:40 | -9.02794 | -79.23128 | 36002 ft | 456 kts | 322° |
| 2026-04-26 16:40 | -8.97871 | -79.27167 | 35993 ft | 456 kts | 322° |
| 2026-04-26 16:41 | -8.92935 | -79.31214 | 35994 ft | 456 kts | 322° |
| 2026-04-26 16:41 | -8.87998 | -79.35250 | 35994 ft | 457 kts | 322° |
| 2026-04-26 16:42 | -8.83052 | -79.39292 | 35995 ft | 457 kts | 322° |
| 2026-04-26 16:42 | -8.78110 | -79.43338 | 35997 ft | 457 kts | 322° |
| 2026-04-26 16:43 | -8.73162 | -79.47381 | 35996 ft | 457 kts | 322° |
| 2026-04-26 16:43 | -8.68210 | -79.51420 | 35994 ft | 457 kts | 322° |
| 2026-04-26 16:44 | -8.63263 | -79.55466 | 35993 ft | 457 kts | 322° |
| 2026-04-26 16:44 | -8.58319 | -79.59521 | 35985 ft | 458 kts | 322° |
| 2026-04-26 16:45 | -8.53358 | -79.63565 | 35990 ft | 458 kts | 322° |
| 2026-04-26 16:45 | -8.48393 | -79.67605 | 35993 ft | 458 kts | 322° |
| 2026-04-26 16:46 | -8.43535 | -79.71781 | 35991 ft | 459 kts | 316° |
| 2026-04-26 16:46 | -8.38999 | -79.76334 | 35991 ft | 460 kts | 316° |
| 2026-04-26 16:47 | -8.34449 | -79.80888 | 35994 ft | 460 kts | 316° |
| 2026-04-26 16:47 | -8.29917 | -79.85414 | 35996 ft | 461 kts | 316° |
| 2026-04-26 16:48 | -8.25358 | -79.89972 | 36001 ft | 461 kts | 316° |
| 2026-04-26 16:48 | -8.20800 | -79.94531 | 36002 ft | 461 kts | 316° |
| 2026-04-26 16:49 | -8.16213 | -79.99118 | 36000 ft | 461 kts | 316° |
| 2026-04-26 16:49 | -8.11660 | -80.03669 | 35997 ft | 461 kts | 316° |
| 2026-04-26 16:50 | -8.07103 | -80.08223 | 35999 ft | 461 kts | 316° |
| 2026-04-26 16:50 | -8.02548 | -80.12774 | 35998 ft | 461 kts | 316° |
| 2026-04-26 16:51 | -7.98009 | -80.17301 | 36001 ft | 462 kts | 316° |
| 2026-04-26 16:51 | -7.93436 | -80.21855 | 36003 ft | 462 kts | 316° |
| 2026-04-26 16:52 | -7.90382 | -80.24903 | 36002 ft | 462 kts | 316° |
| 2026-04-26 16:52 | -7.84306 | -80.30974 | 35997 ft | 462 kts | 316° |
| 2026-04-26 16:53 | -7.79710 | -80.35553 | 35996 ft | 462 kts | 316° |
| 2026-04-26 16:53 | -7.75169 | -80.40078 | 35996 ft | 462 kts | 316° |
| 2026-04-26 16:54 | -7.70595 | -80.44637 | 35996 ft | 462 kts | 316° |
| 2026-04-26 16:54 | -7.66016 | -80.49192 | 35996 ft | 462 kts | 316° |
| 2026-04-26 16:55 | -7.61436 | -80.53744 | 35993 ft | 462 kts | 316° |
| 2026-04-26 16:55 | -7.56859 | -80.58304 | 35993 ft | 463 kts | 316° |
| 2026-04-26 16:56 | -7.49993 | -80.65155 | 35994 ft | 463 kts | 316° |
| 2026-04-26 16:57 | -7.45462 | -80.69657 | 35989 ft | 451 kts | 315° |
| 2026-04-26 16:57 | -7.38785 | -80.76274 | 35988 ft | 448 kts | 315° |
| 2026-04-26 16:58 | -7.35819 | -80.79218 | 35987 ft | 448 kts | 315° |
| 2026-04-26 16:59 | -7.27698 | -80.87289 | 35987 ft | 448 kts | 315° |
| 2026-04-26 17:00 | -7.18824 | -80.96108 | 35986 ft | 448 kts | 315° |
| 2026-04-26 17:00 | -7.12163 | -81.02721 | 35989 ft | 448 kts | 315° |
| 2026-04-26 17:01 | -7.07720 | -81.07124 | 35987 ft | 448 kts | 315° |
| 2026-04-26 17:01 | -7.03282 | -81.11530 | 35991 ft | 448 kts | 315° |
| 2026-04-26 17:02 | -6.99563 | -81.15220 | 35996 ft | 448 kts | 315° |
| 2026-04-26 17:02 | -6.95115 | -81.19623 | 35997 ft | 449 kts | 315° |
| 2026-04-26 17:03 | -6.90675 | -81.24032 | 35998 ft | 449 kts | 315° |
| 2026-04-26 17:03 | -6.86228 | -81.28437 | 36001 ft | 449 kts | 315° |
| 2026-04-26 17:04 | -6.81778 | -81.32839 | 35996 ft | 448 kts | 315° |
| 2026-04-26 17:04 | -6.77362 | -81.37214 | 35997 ft | 448 kts | 315° |
| 2026-04-26 17:05 | -6.72919 | -81.41620 | 35994 ft | 448 kts | 315° |
| 2026-04-26 17:05 | -6.68474 | -81.46012 | 35995 ft | 448 kts | 315° |
| 2026-04-26 17:06 | -6.64027 | -81.50398 | 35992 ft | 448 kts | 315° |
| 2026-04-26 17:06 | -6.59583 | -81.54790 | 35988 ft | 448 kts | 315° |
| 2026-04-26 17:07 | -6.55153 | -81.59184 | 35994 ft | 447 kts | 315° |
| 2026-04-26 17:07 | -6.50719 | -81.63576 | 35993 ft | 447 kts | 315° |
| 2026-04-26 17:08 | -6.46282 | -81.67961 | 35990 ft | 447 kts | 316° |
| 2026-04-26 17:08 | -6.41837 | -81.72346 | 35992 ft | 447 kts | 316° |
| 2026-04-26 17:09 | -6.38115 | -81.76018 | 35989 ft | 447 kts | 316° |
| 2026-04-26 17:09 | -6.32959 | -81.81107 | 35987 ft | 447 kts | 316° |
| 2026-04-26 17:10 | -6.28525 | -81.85482 | 35989 ft | 447 kts | 315° |
| 2026-04-26 17:10 | -6.24093 | -81.89859 | 35989 ft | 446 kts | 316° |
| 2026-04-26 17:11 | -6.19661 | -81.94230 | 35980 ft | 446 kts | 316° |
| 2026-04-26 17:11 | -6.15234 | -81.98603 | 35979 ft | 446 kts | 315° |
| 2026-04-26 17:12 | -6.08594 | -82.05159 | 35977 ft | 446 kts | 316° |
| 2026-04-26 17:13 | -6.01946 | -82.11710 | 35976 ft | 446 kts | 316° |
| 2026-04-26 17:14 | -5.95289 | -82.18263 | 35974 ft | 447 kts | 316° |
| 2026-04-26 17:14 | -5.88633 | -82.24826 | 35978 ft | 447 kts | 316° |
| 2026-04-26 17:15 | -5.81977 | -82.31378 | 35978 ft | 447 kts | 316° |
| 2026-04-26 17:16 | -5.77532 | -82.35749 | 35979 ft | 447 kts | 316° |
| 2026-04-26 17:16 | -5.73092 | -82.40111 | 35979 ft | 447 kts | 316° |
| 2026-04-26 17:17 | -5.68658 | -82.44487 | 35976 ft | 447 kts | 316° |
| 2026-04-26 17:17 | -5.64225 | -82.48853 | 35977 ft | 447 kts | 316° |
| 2026-04-26 17:18 | -5.59784 | -82.53222 | 35978 ft | 447 kts | 316° |
| 2026-04-26 17:18 | -5.55377 | -82.57556 | 35975 ft | 447 kts | 316° |
| 2026-04-26 17:19 | -5.48711 | -82.64094 | 35976 ft | 447 kts | 316° |
| 2026-04-26 17:19 | -5.44271 | -82.68456 | 35973 ft | 446 kts | 316° |
| 2026-04-26 17:20 | -5.40555 | -82.72115 | 35974 ft | 446 kts | 316° |
| 2026-04-26 17:20 | -5.35403 | -82.77184 | 35971 ft | 446 kts | 316° |
| 2026-04-26 17:21 | -5.30969 | -82.81539 | 35970 ft | 446 kts | 316° |
| 2026-04-26 17:21 | -5.26527 | -82.85891 | 35970 ft | 446 kts | 316° |
| 2026-04-26 17:22 | -5.22091 | -82.90247 | 35966 ft | 446 kts | 316° |
| 2026-04-26 17:22 | -5.17664 | -82.94613 | 35966 ft | 446 kts | 316° |
| 2026-04-26 17:23 | -5.13228 | -82.98971 | 35965 ft | 446 kts | 316° |
| 2026-04-26 17:23 | -5.08783 | -83.03323 | 35968 ft | 447 kts | 316° |
| 2026-04-26 17:24 | -5.04337 | -83.07679 | 35968 ft | 447 kts | 316° |
| 2026-04-26 17:24 | -4.99892 | -83.12035 | 35970 ft | 447 kts | 316° |
| 2026-04-26 17:25 | -4.95442 | -83.16399 | 35973 ft | 447 kts | 317° |
| 2026-04-26 17:25 | -4.90990 | -83.20758 | 35972 ft | 447 kts | 317° |
| 2026-04-26 17:26 | -4.86545 | -83.25121 | 35976 ft | 447 kts | 316° |
| 2026-04-26 17:26 | -4.82100 | -83.29490 | 35973 ft | 447 kts | 316° |
| 2026-04-26 17:27 | -4.77652 | -83.33837 | 35973 ft | 447 kts | 317° |
| 2026-04-26 17:27 | -4.73199 | -83.38188 | 35971 ft | 447 kts | 317° |
| 2026-04-26 17:28 | -4.68757 | -83.42539 | 35969 ft | 447 kts | 316° |
| 2026-04-26 17:28 | -4.64319 | -83.46896 | 35972 ft | 446 kts | 316° |
| 2026-04-26 17:29 | -4.60624 | -83.50511 | 35967 ft | 446 kts | 317° |
| 2026-04-26 17:29 | -4.55431 | -83.55586 | 35969 ft | 446 kts | 316° |
| 2026-04-26 17:30 | -4.50989 | -83.59939 | 35971 ft | 446 kts | 316° |
| 2026-04-26 17:30 | -4.46552 | -83.64283 | 35970 ft | 446 kts | 316° |
| 2026-04-26 17:31 | -4.42109 | -83.68629 | 35968 ft | 446 kts | 316° |
| 2026-04-26 17:31 | -4.37663 | -83.72968 | 35969 ft | 446 kts | 316° |
| 2026-04-26 17:32 | -4.33247 | -83.77283 | 35967 ft | 446 kts | 316° |
| 2026-04-26 17:32 | -4.28806 | -83.81625 | 35968 ft | 446 kts | 316° |
| 2026-04-26 17:33 | -4.24375 | -83.85969 | 35972 ft | 446 kts | 316° |
| 2026-04-26 17:34 | -4.17708 | -83.92480 | 35969 ft | 445 kts | 316° |
| 2026-04-26 17:34 | -4.13274 | -83.96816 | 35967 ft | 445 kts | 316° |
| 2026-04-26 17:35 | -4.08838 | -84.01152 | 35965 ft | 445 kts | 316° |
| 2026-04-26 17:35 | -4.04405 | -84.05487 | 35965 ft | 445 kts | 316° |
| 2026-04-26 17:36 | -3.99973 | -84.09817 | 35967 ft | 445 kts | 316° |
| 2026-04-26 17:36 | -3.95540 | -84.14142 | 35961 ft | 445 kts | 316° |
| 2026-04-26 17:37 | -3.91108 | -84.18466 | 35963 ft | 445 kts | 316° |
| 2026-04-26 17:37 | -3.86677 | -84.22788 | 35962 ft | 445 kts | 316° |
| 2026-04-26 17:38 | -3.80035 | -84.29276 | 35961 ft | 444 kts | 316° |
| 2026-04-26 17:38 | -3.75612 | -84.33597 | 35956 ft | 444 kts | 316° |
| 2026-04-26 17:39 | -3.71186 | -84.37917 | 35953 ft | 444 kts | 316° |
| 2026-04-26 17:39 | -3.66766 | -84.42230 | 35951 ft | 444 kts | 316° |
| 2026-04-26 17:40 | -3.63841 | -84.45083 | 35951 ft | 444 kts | 316° |
| 2026-04-26 17:40 | -3.58669 | -84.50120 | 35954 ft | 443 kts | 315° |
| 2026-04-26 17:41 | -3.53540 | -84.55122 | 35951 ft | 443 kts | 315° |
| 2026-04-26 17:41 | -3.49844 | -84.58731 | 35954 ft | 443 kts | 315° |
| 2026-04-26 17:42 | -3.45437 | -84.63033 | 35956 ft | 442 kts | 315° |
| 2026-04-26 17:42 | -3.41032 | -84.67331 | 35954 ft | 442 kts | 315° |
| 2026-04-26 17:43 | -3.36540 | -84.71530 | 35953 ft | 442 kts | 318° |
| 2026-04-26 17:43 | -3.31885 | -84.75557 | 35954 ft | 442 kts | 319° |
| 2026-04-26 17:44 | -3.27250 | -84.79533 | 35955 ft | 442 kts | 319° |
| 2026-04-26 17:44 | -3.22622 | -84.83578 | 35954 ft | 442 kts | 318° |
| 2026-04-26 17:45 | -3.18021 | -84.87649 | 35954 ft | 441 kts | 318° |
| 2026-04-26 17:45 | -3.13422 | -84.91718 | 35956 ft | 441 kts | 318° |
| 2026-04-26 17:46 | -3.08812 | -84.95775 | 35955 ft | 441 kts | 318° |
| 2026-04-26 17:46 | -3.04195 | -84.99823 | 35954 ft | 441 kts | 318° |
| 2026-04-26 17:47 | -3.00333 | -85.03208 | 35950 ft | 441 kts | 318° |
| 2026-04-26 17:47 | -2.94977 | -85.07917 | 35952 ft | 441 kts | 318° |
| 2026-04-26 17:48 | -2.90375 | -85.11969 | 35947 ft | 440 kts | 318° |
| 2026-04-26 17:48 | -2.85776 | -85.16013 | 35944 ft | 440 kts | 318° |
| 2026-04-26 17:49 | -2.81174 | -85.20050 | 35944 ft | 440 kts | 318° |
| 2026-04-26 17:49 | -2.76577 | -85.24090 | 35943 ft | 440 kts | 317° |
| 2026-04-26 17:50 | -2.71979 | -85.28127 | 35940 ft | 440 kts | 318° |
| 2026-04-26 17:50 | -2.67380 | -85.32161 | 35942 ft | 440 kts | 318° |
| 2026-04-26 17:51 | -2.62781 | -85.36199 | 35945 ft | 440 kts | 317° |
| 2026-04-26 17:51 | -2.58184 | -85.40241 | 35944 ft | 440 kts | 317° |
| 2026-04-26 17:52 | -2.53590 | -85.44275 | 35953 ft | 439 kts | 317° |
| 2026-04-26 17:52 | -2.48996 | -85.48305 | 35947 ft | 439 kts | 317° |
| 2026-04-26 17:53 | -2.44407 | -85.52340 | 35942 ft | 439 kts | 317° |
| 2026-04-26 17:54 | -2.37514 | -85.58395 | 35943 ft | 439 kts | 317° |
| 2026-04-26 17:54 | -2.32920 | -85.62416 | 35939 ft | 439 kts | 317° |
| 2026-04-26 17:55 | -2.28323 | -85.66446 | 35936 ft | 439 kts | 317° |
| 2026-04-26 17:55 | -2.23726 | -85.70484 | 35938 ft | 439 kts | 317° |
| 2026-04-26 17:56 | -2.19136 | -85.74512 | 35940 ft | 439 kts | 317° |
| 2026-04-26 17:57 | -2.09977 | -85.82555 | 35936 ft | 439 kts | 317° |
| 2026-04-26 17:57 | -2.05386 | -85.86589 | 35938 ft | 439 kts | 317° |
| 2026-04-26 17:58 | -1.96200 | -85.94645 | 35931 ft | 439 kts | 317° |
| 2026-04-26 17:59 | -1.89295 | -86.00688 | 35935 ft | 439 kts | 317° |
| 2026-04-26 17:59 | -1.84701 | -86.04720 | 35935 ft | 439 kts | 317° |
| 2026-04-26 18:00 | -1.80107 | -86.08753 | 35930 ft | 439 kts | 317° |
| 2026-04-26 18:00 | -1.75510 | -86.12781 | 35927 ft | 439 kts | 317° |
| 2026-04-26 18:01 | -1.70917 | -86.16803 | 35924 ft | 439 kts | 317° |
| 2026-04-26 18:01 | -1.66322 | -86.20830 | 35926 ft | 439 kts | 317° |
| 2026-04-26 18:02 | -1.62506 | -86.24183 | 35928 ft | 439 kts | 317° |
| 2026-04-26 18:02 | -1.57136 | -86.28888 | 35926 ft | 439 kts | 317° |
| 2026-04-26 18:03 | -1.52530 | -86.32914 | 35927 ft | 439 kts | 317° |
| 2026-04-26 18:03 | -1.47983 | -86.36994 | 35915 ft | 439 kts | 311° |
| 2026-04-26 18:04 | -1.44688 | -86.42067 | 35916 ft | 437 kts | 292° |
| 2026-04-26 18:05 | -1.42908 | -86.50978 | 35911 ft | 438 kts | 278° |
| 2026-04-26 18:05 | -1.42105 | -86.57016 | 35915 ft | 438 kts | 278° |
| 2026-04-26 18:06 | -1.41299 | -86.63059 | 35916 ft | 439 kts | 278° |
| 2026-04-26 18:06 | -1.40487 | -86.69104 | 35915 ft | 439 kts | 278° |
| 2026-04-26 18:07 | -1.39673 | -86.75152 | 35914 ft | 439 kts | 278° |
| 2026-04-26 18:07 | -1.38873 | -86.81164 | 35915 ft | 439 kts | 278° |
| 2026-04-26 18:08 | -1.38066 | -86.87215 | 35916 ft | 439 kts | 278° |
| 2026-04-26 18:08 | -1.37255 | -86.93266 | 35923 ft | 439 kts | 278° |
| 2026-04-26 18:09 | -1.36444 | -86.99317 | 35917 ft | 439 kts | 278° |
| 2026-04-26 18:09 | -1.35635 | -87.05362 | 35925 ft | 439 kts | 278° |
| 2026-04-26 18:10 | -1.34814 | -87.11418 | 35921 ft | 439 kts | 278° |
| 2026-04-26 18:10 | -1.33997 | -87.17460 | 35923 ft | 439 kts | 278° |
| 2026-04-26 18:11 | -1.33190 | -87.23511 | 35923 ft | 439 kts | 278° |
| 2026-04-26 18:11 | -1.32379 | -87.29561 | 35920 ft | 439 kts | 278° |
| 2026-04-26 18:12 | -1.31572 | -87.35610 | 35925 ft | 439 kts | 278° |
| 2026-04-26 18:12 | -1.30760 | -87.41665 | 35924 ft | 439 kts | 278° |
| 2026-04-26 18:13 | -1.29949 | -87.47720 | 35927 ft | 439 kts | 278° |
| 2026-04-26 18:13 | -1.29141 | -87.53766 | 35924 ft | 439 kts | 278° |
| 2026-04-26 18:14 | -1.28328 | -87.59811 | 35930 ft | 439 kts | 278° |
| 2026-04-26 18:14 | -1.27514 | -87.65856 | 35927 ft | 439 kts | 278° |
| 2026-04-26 18:15 | -1.26704 | -87.71896 | 35928 ft | 439 kts | 278° |
| 2026-04-26 18:15 | -1.25887 | -87.77942 | 35930 ft | 439 kts | 278° |
| 2026-04-26 18:16 | -1.25072 | -87.83956 | 35924 ft | 439 kts | 278° |
| 2026-04-26 18:16 | -1.22967 | -87.92862 | 35927 ft | 438 kts | 288° |
| 2026-04-26 18:17 | -1.21066 | -87.98612 | 35925 ft | 439 kts | 288° |
| 2026-04-26 18:17 | -1.19163 | -88.04409 | 35925 ft | 439 kts | 288° |
| 2026-04-26 18:18 | -1.17255 | -88.10213 | 35925 ft | 439 kts | 288° |
| 2026-04-26 18:18 | -1.15344 | -88.16003 | 35915 ft | 439 kts | 288° |
| 2026-04-26 18:19 | -1.13435 | -88.21799 | 35915 ft | 439 kts | 288° |
| 2026-04-26 18:19 | -1.11526 | -88.27595 | 35919 ft | 439 kts | 288° |
| 2026-04-26 18:20 | -1.10571 | -88.30491 | 35711 ft | 440 kts | 288° |
| 2026-04-26 18:20 | -1.09611 | -88.33404 | 35471 ft | 441 kts | 289° |
| 2026-04-26 18:20 | -1.08648 | -88.36319 | 35235 ft | 442 kts | 289° |
| 2026-04-26 18:20 | -1.08322 | -88.37304 | 35156 ft | 442 kts | 289° |
| 2026-04-26 18:21 | -1.06711 | -88.42161 | 34772 ft | 445 kts | 289° |
| 2026-04-26 18:21 | -1.05739 | -88.45099 | 34551 ft | 446 kts | 289° |
| 2026-04-26 18:21 | -1.04765 | -88.48051 | 34318 ft | 448 kts | 289° |
| 2026-04-26 18:21 | -1.03790 | -88.51013 | 34092 ft | 449 kts | 289° |
| 2026-04-26 18:22 | -1.02813 | -88.53981 | 33861 ft | 450 kts | 289° |
| 2026-04-26 18:22 | -1.01832 | -88.56962 | 33603 ft | 452 kts | 289° |
| 2026-04-26 18:22 | -1.00847 | -88.59949 | 33349 ft | 454 kts | 289° |
| 2026-04-26 18:22 | -0.99858 | -88.62947 | 33095 ft | 455 kts | 289° |
| 2026-04-26 18:23 | -0.98866 | -88.65956 | 32845 ft | 457 kts | 289° |
| 2026-04-26 18:23 | -0.97869 | -88.68974 | 32597 ft | 458 kts | 289° |
| 2026-04-26 18:23 | -0.96870 | -88.72003 | 32348 ft | 460 kts | 289° |
| 2026-04-26 18:23 | -0.95868 | -88.75046 | 32103 ft | 461 kts | 289° |
| 2026-04-26 18:24 | -0.95205 | -88.77061 | 31942 ft | 462 kts | 289° |
| 2026-04-26 18:24 | -0.93858 | -88.81153 | 31399 ft | 464 kts | 289° |
| 2026-04-26 18:24 | -0.93186 | -88.83190 | 30637 ft | 470 kts | 289° |
| 2026-04-26 18:24 | -0.92153 | -88.86320 | 29425 ft | 479 kts | 289° |
| 2026-04-26 18:25 | -0.91104 | -88.89499 | 28372 ft | 482 kts | 289° |
| 2026-04-26 18:25 | -0.90063 | -88.92653 | 27745 ft | 475 kts | 289° |
| 2026-04-26 18:25 | -0.89032 | -88.95776 | 26998 ft | 471 kts | 289° |
| 2026-04-26 18:25 | -0.88009 | -88.98876 | 26265 ft | 468 kts | 289° |
| 2026-04-26 18:26 | -0.86995 | -89.01958 | 25538 ft | 466 kts | 289° |
| 2026-04-26 18:26 | -0.85984 | -89.05025 | 24829 ft | 464 kts | 289° |
| 2026-04-26 18:26 | -0.84979 | -89.08077 | 24123 ft | 462 kts | 289° |
| 2026-04-26 18:26 | -0.83976 | -89.11126 | 23411 ft | 461 kts | 289° |
| 2026-04-26 18:27 | -0.82977 | -89.14163 | 22652 ft | 458 kts | 289° |
| 2026-04-26 18:27 | -0.81988 | -89.17164 | 22016 ft | 453 kts | 289° |
| 2026-04-26 18:27 | -0.81004 | -89.20144 | 21395 ft | 449 kts | 288° |
| 2026-04-26 18:27 | -0.80030 | -89.23089 | 20786 ft | 444 kts | 288° |
| 2026-04-26 18:28 | -0.79066 | -89.26001 | 20218 ft | 439 kts | 288° |
| 2026-04-26 18:28 | -0.78111 | -89.28889 | 19663 ft | 435 kts | 288° |
| 2026-04-26 18:28 | -0.77168 | -89.31741 | 19127 ft | 431 kts | 288° |
| 2026-04-26 18:28 | -0.76232 | -89.34572 | 18594 ft | 427 kts | 288° |
| 2026-04-26 18:29 | -0.75306 | -89.37376 | 18040 ft | 423 kts | 288° |
| 2026-04-26 18:29 | -0.74390 | -89.40156 | 17470 ft | 419 kts | 288° |
| 2026-04-26 18:29 | -0.73484 | -89.42902 | 16942 ft | 415 kts | 288° |
| 2026-04-26 18:29 | -0.72585 | -89.45633 | 16387 ft | 412 kts | 288° |
| 2026-04-26 18:30 | -0.71693 | -89.48339 | 15847 ft | 408 kts | 288° |
| 2026-04-26 18:30 | -0.70806 | -89.51033 | 15276 ft | 408 kts | 288° |
| 2026-04-26 18:30 | -0.69917 | -89.53728 | 14709 ft | 408 kts | 288° |
| 2026-04-26 18:30 | -0.69029 | -89.56417 | 14128 ft | 407 kts | 288° |
| 2026-04-26 18:31 | -0.68152 | -89.59069 | 13509 ft | 394 kts | 288° |
| 2026-04-26 18:31 | -0.67313 | -89.61614 | 12925 ft | 376 kts | 288° |
| 2026-04-26 18:31 | -0.66503 | -89.64075 | 12365 ft | 373 kts | 288° |
| 2026-04-26 18:31 | -0.65693 | -89.66536 | 11795 ft | 373 kts | 288° |
| 2026-04-26 18:32 | -0.64887 | -89.68984 | 11221 ft | 371 kts | 288° |
| 2026-04-26 18:32 | -0.64083 | -89.71421 | 10688 ft | 364 kts | 288° |
| 2026-04-26 18:32 | -0.63308 | -89.73762 | 10170 ft | 348 kts | 289° |
| 2026-04-26 18:32 | -0.62574 | -89.75983 | 9946 ft | 325 kts | 289° |
| 2026-04-26 18:33 | -0.61895 | -89.78043 | 9905 ft | 301 kts | 289° |
| 2026-04-26 18:33 | -0.61253 | -89.79997 | 9911 ft | 293 kts | 288° |
| 2026-04-26 18:33 | -0.60620 | -89.81920 | 9912 ft | 291 kts | 289° |
| 2026-04-26 18:33 | -0.59986 | -89.83836 | 9912 ft | 290 kts | 289° |
| 2026-04-26 18:34 | -0.59349 | -89.85755 | 9911 ft | 291 kts | 289° |
| 2026-04-26 18:34 | -0.58712 | -89.87678 | 9738 ft | 293 kts | 289° |
| 2026-04-26 18:34 | -0.58076 | -89.89605 | 9379 ft | 291 kts | 289° |
| 2026-04-26 18:34 | -0.57443 | -89.91521 | 9074 ft | 288 kts | 289° |
| 2026-04-26 18:35 | -0.56817 | -89.93411 | 8761 ft | 286 kts | 289° |
| 2026-04-26 18:35 | -0.56192 | -89.95299 | 8472 ft | 285 kts | 289° |
| 2026-04-26 18:35 | -0.55570 | -89.97183 | 8171 ft | 284 kts | 289° |
| 2026-04-26 18:35 | -0.54991 | -89.98942 | 7888 ft | 283 kts | 289° |
| 2026-04-26 18:36 | -0.54444 | -90.00597 | 7642 ft | 282 kts | 289° |
| 2026-04-26 18:36 | -0.53829 | -90.02456 | 7341 ft | 281 kts | 289° |
| 2026-04-26 18:36 | -0.53218 | -90.04301 | 7054 ft | 280 kts | 289° |
| 2026-04-26 18:36 | -0.52609 | -90.06144 | 6759 ft | 279 kts | 289° |
| 2026-04-26 18:37 | -0.52003 | -90.07979 | 6475 ft | 277 kts | 289° |
| 2026-04-26 18:37 | -0.51399 | -90.09805 | 6171 ft | 276 kts | 289° |
| 2026-04-26 18:37 | -0.50801 | -90.11623 | 5869 ft | 275 kts | 289° |
| 2026-04-26 18:37 | -0.50209 | -90.13434 | 5577 ft | 274 kts | 289° |
| 2026-04-26 18:38 | -0.49617 | -90.15238 | 5279 ft | 273 kts | 288° |
| 2026-04-26 18:38 | -0.49032 | -90.17014 | 5017 ft | 272 kts | 289° |
| 2026-04-26 18:38 | -0.48439 | -90.18805 | 4733 ft | 271 kts | 288° |
| 2026-04-26 18:38 | -0.47848 | -90.20590 | 4430 ft | 270 kts | 288° |
| 2026-04-26 18:39 | -0.47261 | -90.22366 | 4159 ft | 268 kts | 288° |
| 2026-04-26 18:39 | -0.46686 | -90.24106 | 4001 ft | 258 kts | 288° |
| 2026-04-26 18:39 | -0.46122 | -90.25779 | 3821 ft | 250 kts | 292° |
| 2026-04-26 18:39 | -0.45377 | -90.27319 | 3700 ft | 245 kts | 296° |
| 2026-04-26 18:40 | -0.44617 | -90.28842 | 3610 ft | 245 kts | 296° |
| 2026-04-26 18:40 | -0.43861 | -90.30367 | 3547 ft | 245 kts | 296° |
| 2026-04-26 18:40 | -0.43107 | -90.31892 | 3448 ft | 245 kts | 296° |
| 2026-04-26 18:40 | -0.42355 | -90.33415 | 3321 ft | 244 kts | 296° |
| 2026-04-26 18:41 | -0.41601 | -90.34934 | 3157 ft | 244 kts | 296° |
| 2026-04-26 18:41 | -0.40849 | -90.36448 | 2922 ft | 242 kts | 296° |
| 2026-04-26 18:41 | -0.40101 | -90.37951 | 2682 ft | 240 kts | 296° |
| 2026-04-26 18:41 | -0.39365 | -90.39433 | 2437 ft | 236 kts | 296° |
| 2026-04-26 18:42 | -0.38642 | -90.40888 | 2331 ft | 228 kts | 296° |
| 2026-04-26 18:42 | -0.37876 | -90.42222 | 2306 ft | 216 kts | 314° |
| 2026-04-26 18:42 | -0.36623 | -90.42948 | 2206 ft | 207 kts | 346° |
| 2026-04-26 18:42 | -0.35239 | -90.43104 | 2124 ft | 194 kts | 4° |
| 2026-04-26 18:43 | -0.33949 | -90.42873 | 2033 ft | 185 kts | 21° |
| 2026-04-26 18:43 | -0.32824 | -90.42304 | 1962 ft | 179 kts | 39° |
| 2026-04-26 18:43 | -0.31940 | -90.41449 | 1968 ft | 176 kts | 56° |
| 2026-04-26 18:43 | -0.31363 | -90.40383 | 1966 ft | 174 kts | 72° |
| 2026-04-26 18:44 | -0.31127 | -90.39203 | 1967 ft | 172 kts | 89° |
| 2026-04-26 18:44 | -0.31246 | -90.38022 | 1972 ft | 172 kts | 106° |
| 2026-04-26 18:44 | -0.31709 | -90.36927 | 1969 ft | 171 kts | 122° |
| 2026-04-26 18:44 | -0.32490 | -90.36046 | 1972 ft | 170 kts | 139° |
| 2026-04-26 18:45 | -0.33417 | -90.35310 | 1972 ft | 170 kts | 142° |
| 2026-04-26 18:45 | -0.34368 | -90.34599 | 1972 ft | 171 kts | 143° |
| 2026-04-26 18:45 | -0.35325 | -90.33896 | 1979 ft | 170 kts | 143° |
| 2026-04-26 18:45 | -0.36275 | -90.33204 | 1967 ft | 162 kts | 143° |
| 2026-04-26 18:46 | -0.37129 | -90.32584 | 1969 ft | 146 kts | 143° |
| 2026-04-26 18:46 | -0.37931 | -90.32000 | 1950 ft | 141 kts | 143° |
| 2026-04-26 18:46 | -0.38731 | -90.31418 | 1523 ft | 146 kts | 143° |
| 2026-04-26 18:46 | -0.39530 | -90.30839 | 1316 ft | 139 kts | 143° |
| 2026-04-26 18:47 | -0.40305 | -90.30276 | 1167 ft | 137 kts | 143° |
| 2026-04-26 18:47 | -0.41074 | -90.29717 | 1006 ft | 136 kts | 143° |
| 2026-04-26 18:47 | -0.41819 | -90.29176 | 841 ft | 135 kts | 142° |
| 2026-04-26 18:47 | -0.42578 | -90.28625 | 665 ft | 134 kts | 143° |
| 2026-04-26 18:48 | -0.43336 | -90.28075 | 493 ft | 135 kts | 143° |
| 2026-04-26 18:48 | -0.44086 | -90.27529 | 307 ft | 133 kts | 143° |
| 2026-04-26 18:48 | -0.44823 | -90.26992 | 204 ft | 129 kts | 142° |
| 2026-04-26 18:48 | -0.45444 | -90.26536 | 199 ft | 79 kts | 143° |
| 2026-04-26 18:49 | -0.45665 | -90.26374 | 199 ft | 2 kts | 144° |
| 2026-04-26 18:49 | -0.45677 | -90.26365 | 201 ft | 13 kts | 143° |
| 2026-04-26 18:49 | -0.45817 | -90.26263 | 205 ft | 26 kts | 143° |
| 2026-04-26 18:49 | -0.45955 | -90.26162 | 210 ft | 23 kts | 142° |
| 2026-04-26 18:50 | -0.46083 | -90.26082 | 212 ft | 21 kts | 144° |
| 2026-04-26 18:50 | -0.46192 | -90.26002 | 213 ft | 12 kts | 128° |
| 2026-04-26 18:50 | -0.46215 | -90.25962 | 219 ft | 1 kts | 222° |
| 2026-04-26 18:50 | -0.46207 | -90.25982 | 213 ft | 10 kts | 306° |
| 2026-04-26 18:51 | -0.46149 | -90.26031 | 213 ft | 11 kts | 324° |
| 2026-04-26 18:51 | -0.46072 | -90.26087 | 213 ft | 16 kts | 324° |
| 2026-04-26 18:51 | -0.45949 | -90.26174 | 212 ft | 19 kts | 325° |
| 2026-04-26 18:51 | -0.45840 | -90.26251 | 206 ft | 19 kts | 324° |
| 2026-04-26 18:52 | -0.45726 | -90.26328 | 203 ft | 20 kts | 328° |
| 2026-04-26 18:52 | -0.45609 | -90.26418 | 200 ft | 22 kts | 323° |
| 2026-04-26 18:52 | -0.45488 | -90.26507 | 197 ft | 22 kts | 325° |
| 2026-04-26 18:52 | -0.45362 | -90.26597 | 181 ft | 23 kts | 324° |
| 2026-04-26 18:53 | -0.45239 | -90.26688 | 182 ft | 21 kts | 324° |
| 2026-04-26 18:53 | -0.45119 | -90.26772 | 177 ft | 21 kts | 324° |
| 2026-04-26 18:53 | -0.44999 | -90.26859 | 175 ft | 21 kts | 323° |
| 2026-04-26 18:53 | -0.44885 | -90.26943 | 172 ft | 21 kts | 324° |
| 2026-04-26 18:54 | -0.44762 | -90.27030 | 165 ft | 22 kts | 324° |
| 2026-04-26 18:54 | -0.44697 | -90.27078 | 163 ft | 7 kts | 327° |
| 2026-04-26 18:54 | -0.44662 | -90.27066 | 162 ft | 6 kts | 53° |
| 2026-04-26 18:54 | -0.44641 | -90.27036 | 162 ft | 5 kts | 59° |
| 2026-04-26 18:55 | -0.44642 | -90.27013 | 162 ft | 2 kts | 107° |
| 2026-04-26 18:55 | -0.44645 | -90.26984 | 163 ft | 6 kts | 83° |
| 2026-04-26 18:55 | -0.44627 | -90.26950 | 164 ft | 4 kts | 59° |
| 2026-04-26 18:55 | -0.44616 | -90.26933 | 164 ft | 2 kts | 57° |
| 2026-04-26 18:56 | -0.44606 | -90.26931 | 164 ft | 1 kts | 359° |
| 2026-04-26 18:56 | -0.44602 | -90.26938 | 164 ft | 1 kts | 294° |
| 2026-04-26 18:56 | -0.44605 | -90.26943 | 164 ft | 0 kts | 240° |